createdAt,value
2022-10-08T00:00:58.944Z,98835.25
2022-10-08T00:03:29.578Z,98837.00
2022-10-08T00:06:00.456Z,98832.59
2022-10-08T00:08:29.171Z,98836.19
2022-10-08T00:10:58.304Z,98839.72
2022-10-08T00:13:26.492Z,98838.84
2022-10-08T00:15:54.125Z,98840.69
2022-10-08T00:18:21.682Z,98829.19
2022-10-08T00:20:52.074Z,98829.19
2022-10-08T00:23:21.750Z,98829.19
2022-10-08T00:25:48.282Z,98826.56
2022-10-08T00:28:14.835Z,98827.47
2022-10-08T00:30:41.690Z,98825.69
2022-10-08T00:33:10.098Z,98831.00
2022-10-08T00:35:40.698Z,98826.63
2022-10-08T00:38:07.766Z,98838.09
2022-10-08T00:40:44.959Z,98824.84
2022-10-08T00:43:16.580Z,98835.44
2022-10-08T00:45:48.643Z,98825.69
2022-10-08T00:48:25.492Z,98828.34
2022-10-08T00:50:52.386Z,98832.84
2022-10-08T00:53:18.863Z,98839.94
2022-10-08T00:55:45.402Z,98834.63
2022-10-08T00:58:16.664Z,98841.75
2022-10-08T01:00:44.677Z,98839.09
2022-10-08T01:03:14.310Z,98839.09
2022-10-08T01:05:40.793Z,98840.88
2022-10-08T01:08:26.376Z,98829.38
2022-10-08T01:11:26.852Z,98841.84
2022-10-08T01:14:32.105Z,98844.50
2022-10-08T01:17:16.791Z,98847.16
2022-10-08T01:20:16.802Z,98830.41
2022-10-08T01:23:25.466Z,98833.94
2022-10-08T01:25:55.800Z,98838.38
2022-10-08T01:28:44.874Z,98829.59
2022-10-08T01:31:29.507Z,98835.81
2022-10-08T01:34:03.366Z,98832.28
2022-10-08T01:36:36.903Z,98842.03
2022-10-08T01:39:08.829Z,98835.91
2022-10-08T01:41:36.066Z,98832.38
2022-10-08T01:44:13.679Z,98830.63
2022-10-08T01:46:43.181Z,98835.94
2022-10-08T01:49:17.565Z,98834.22
2022-10-08T01:52:33.715Z,98831.59
2022-10-08T01:55:08.195Z,98837.81
2022-10-08T01:57:38.107Z,98838.69
2022-10-08T02:00:10.770Z,98823.66
2022-10-08T02:02:37.490Z,98829.88
2022-10-08T02:05:05.245Z,98831.63
2022-10-08T02:07:35.833Z,98835.25
2022-10-08T02:10:21.493Z,98833.47
2022-10-08T02:12:48.496Z,98832.63
2022-10-08T02:15:29.076Z,98838.81
2022-10-08T02:18:16.270Z,98833.56
2022-10-08T02:20:52.554Z,98836.25
2022-10-08T02:23:37.709Z,98825.63
2022-10-08T02:26:08.144Z,98826.56
2022-10-08T02:28:57.997Z,98824.78
2022-10-08T02:31:42.932Z,98815.94
2022-10-08T02:34:18.488Z,98822.19
2022-10-08T02:36:51.453Z,98811.59
2022-10-08T02:39:20.902Z,98811.66
2022-10-08T02:41:52.237Z,98807.25
2022-10-08T02:44:33.594Z,98812.59
2022-10-08T02:47:04.466Z,98809.97
2022-10-08T02:49:40.036Z,98818.81
2022-10-08T02:52:09.063Z,98809.97
2022-10-08T02:54:42.247Z,98812.66
2022-10-08T02:57:23.786Z,98810.91
2022-10-08T02:59:50.969Z,98816.22
2022-10-08T03:02:27.865Z,98812.66
2022-10-08T03:04:59.430Z,98812.69
2022-10-08T03:07:29.995Z,98818.91
2022-10-08T03:09:58.790Z,98810.94
2022-10-08T03:12:26.191Z,98810.91
2022-10-08T03:14:52.759Z,98809.19
2022-10-08T03:17:27.734Z,98806.53
2022-10-08T03:19:54.692Z,98810.09
2022-10-08T03:22:21.235Z,98811.00
2022-10-08T03:24:48.194Z,98812.75
2022-10-08T03:27:14.810Z,98810.06
2022-10-08T03:29:41.349Z,98815.38
2022-10-08T03:32:08.526Z,98812.78
2022-10-08T03:34:35.009Z,98817.19
2022-10-08T03:37:01.583Z,98812.78
2022-10-08T03:39:28.052Z,98816.25
2022-10-08T03:41:54.539Z,98814.50
2022-10-08T03:44:21.115Z,98816.25
2022-10-08T03:46:47.601Z,98813.53
2022-10-08T03:49:14.080Z,98817.06
2022-10-08T03:51:40.684Z,98812.63
2022-10-08T03:54:07.150Z,98814.38
2022-10-08T03:56:34.424Z,98818.81
2022-10-08T03:59:03.766Z,98812.59
2022-10-08T04:01:30.302Z,98814.31
2022-10-08T04:03:56.848Z,98810.75
2022-10-08T04:06:23.438Z,98810.78
2022-10-08T04:08:50.164Z,98810.78
2022-10-08T04:11:17.704Z,98810.75
2022-10-08T04:13:44.743Z,98807.19
2022-10-08T04:16:17.126Z,98809.00
2022-10-08T04:18:44.879Z,98804.59
2022-10-08T04:21:14.653Z,98800.19
2022-10-08T04:23:42.400Z,98801.97
2022-10-08T04:26:10.544Z,98803.78
2022-10-08T04:28:39.319Z,98802.00
2022-10-08T04:31:07.752Z,98807.34
2022-10-08T04:33:35.748Z,98798.47
2022-10-08T04:36:17.238Z,98797.63
2022-10-08T04:38:44.793Z,98786.13
2022-10-08T04:41:17.023Z,98789.72
2022-10-08T04:43:44.911Z,98795.00
2022-10-08T04:46:14.509Z,98793.25
2022-10-08T04:48:46.604Z,98797.63
2022-10-08T04:51:13.414Z,98799.34
2022-10-08T04:53:39.898Z,98802.03
2022-10-08T04:56:17.941Z,98802.88
2022-10-08T04:58:45.004Z,98801.13
2022-10-08T05:01:14.720Z,98808.22
2022-10-08T05:03:47.568Z,98809.13
2022-10-08T05:06:15.634Z,98804.69
2022-10-08T05:08:42.543Z,98808.25
2022-10-08T05:11:09.595Z,98810.94
2022-10-08T05:13:36.873Z,98809.16
2022-10-08T05:16:08.965Z,98802.06
2022-10-08T05:18:36.742Z,98816.22
2022-10-08T05:21:11.765Z,98811.78
2022-10-08T05:23:38.464Z,98807.38
2022-10-08T05:26:46.658Z,98805.59
2022-10-08T05:29:12.841Z,98805.59
2022-10-08T05:31:39.819Z,98805.63
2022-10-08T05:34:06.357Z,98804.78
2022-10-08T05:36:34.240Z,98809.19
2022-10-08T05:39:02.342Z,98810.94
2022-10-08T05:41:31.326Z,98803.00
2022-10-08T05:43:59.088Z,98805.63
2022-10-08T05:46:27.844Z,98803.84
2022-10-08T05:48:55.804Z,98799.44
2022-10-08T05:51:23.353Z,98801.16
2022-10-08T05:53:52.258Z,98809.09
2022-10-08T05:56:23.203Z,98807.31
2022-10-08T05:58:50.979Z,98811.72
2022-10-08T06:01:29.738Z,98812.53
2022-10-08T06:03:58.957Z,98823.06
2022-10-08T06:06:26.164Z,98824.78
2022-10-08T06:08:58.203Z,98814.13
2022-10-08T06:11:25.159Z,98808.72
2022-10-08T06:13:55.076Z,98815.78
2022-10-08T06:16:22.447Z,98816.66
2022-10-08T06:18:49.307Z,98830.75
2022-10-08T06:21:24.359Z,98834.28
2022-10-08T06:23:53.520Z,98839.59
2022-10-08T06:26:22.164Z,98848.47
2022-10-08T06:28:49.588Z,98849.38
2022-10-08T06:31:17.528Z,98859.16
2022-10-08T06:33:44.588Z,98858.31
2022-10-08T06:36:14.130Z,98861.84
2022-10-08T06:38:40.887Z,98857.44
2022-10-08T06:41:07.679Z,98865.38
2022-10-08T06:43:34.290Z,98860.94
2022-10-08T06:46:04.606Z,98865.38
2022-10-08T06:48:31.336Z,98872.47
2022-10-08T06:51:02.905Z,98874.28
2022-10-08T06:53:29.993Z,98874.31
2022-10-08T06:56:00.881Z,98888.50
2022-10-08T06:58:27.944Z,98885.84
2022-10-08T07:01:14.012Z,98891.19
2022-10-08T07:03:40.592Z,98899.13
2022-10-08T07:06:10.005Z,98901.81
2022-10-08T07:08:36.479Z,98902.75
2022-10-08T07:11:14.929Z,98900.09
2022-10-08T07:13:42.470Z,98909.81
2022-10-08T07:16:20.752Z,98904.56
2022-10-08T07:18:49.750Z,98918.75
2022-10-08T07:21:18.190Z,98922.28
2022-10-08T07:23:45.281Z,98926.72
2022-10-08T07:26:15.834Z,98935.59
2022-10-08T07:29:04.024Z,98931.19
2022-10-08T07:31:33.583Z,98935.56
2022-10-08T07:34:01.922Z,98946.25
2022-10-08T07:36:30.072Z,98937.41
2022-10-08T07:39:08.464Z,98948.91
2022-10-08T07:41:35.086Z,98946.25
2022-10-08T07:44:02.491Z,98953.34
2022-10-08T07:46:31.128Z,98955.13
2022-10-08T07:49:01.734Z,98956.03
2022-10-08T07:51:31.431Z,98957.81
2022-10-08T07:54:02.527Z,98954.25
2022-10-08T07:56:29.888Z,98962.25
2022-10-08T07:58:56.437Z,98957.81
2022-10-08T08:01:29.436Z,98964.00
2022-10-08T08:03:59.386Z,98956.03
2022-10-08T08:06:26.135Z,98970.19
2022-10-08T08:08:53.881Z,98977.25
2022-10-08T08:11:22.845Z,98974.63
2022-10-08T08:13:50.069Z,98971.00
2022-10-08T08:16:22.742Z,98981.59
2022-10-08T08:18:50.704Z,98975.34
2022-10-08T08:21:20.123Z,98981.53
2022-10-08T08:23:49.208Z,98989.41
2022-10-08T08:26:29.446Z,98993.81
2022-10-08T08:28:58.585Z,98986.69
2022-10-08T08:31:34.366Z,98997.28
2022-10-08T08:34:10.833Z,99012.34
2022-10-08T08:36:42.892Z,99012.31
2022-10-08T08:39:14.103Z,99015.78
2022-10-08T08:42:14.603Z,99005.09
2022-10-08T08:44:43.680Z,99010.47
2022-10-08T08:47:18.916Z,99012.25
2022-10-08T08:49:52.291Z,98998.88
2022-10-08T08:52:23.688Z,99022.69
2022-10-08T08:54:53.185Z,99012.88
2022-10-08T08:57:40.906Z,99015.53
2022-10-08T09:00:16.256Z,99034.06
2022-10-08T09:02:55.736Z,99031.47
2022-10-08T09:05:25.184Z,99033.25
2022-10-08T09:07:57.743Z,99035.97
2022-10-08T09:10:35.300Z,99034.22
2022-10-08T09:13:02.771Z,99049.16
2022-10-08T09:15:36.222Z,99047.44
2022-10-08T09:18:04.664Z,99050.13
2022-10-08T09:20:31.754Z,99052.72
2022-10-08T09:22:59.490Z,99059.78
2022-10-08T09:25:32.833Z,99068.53
2022-10-08T09:28:07.412Z,99068.50
2022-10-08T09:30:39.348Z,99069.38
2022-10-08T09:33:26.065Z,99071.16
2022-10-08T09:35:53.902Z,99079.94
2022-10-08T09:38:23.436Z,99081.63
2022-10-08T09:41:03.631Z,99087.06
2022-10-08T09:43:31.922Z,99076.53
2022-10-08T09:45:58.632Z,99095.13
2022-10-08T09:48:29.529Z,99094.25
2022-10-08T09:50:59.075Z,99096.94
2022-10-08T09:53:43.761Z,99109.34
2022-10-08T09:56:12.541Z,99102.22
2022-10-08T09:58:57.050Z,99109.34
2022-10-08T10:01:25.466Z,99109.34
2022-10-08T10:04:00.608Z,99114.63
2022-10-08T10:06:30.418Z,99105.75
2022-10-08T10:09:01.949Z,99103.94
2022-10-08T10:11:48.258Z,99110.03
2022-10-08T10:14:29.260Z,99112.69
2022-10-08T10:17:02.528Z,99104.72
2022-10-08T10:19:35.308Z,99114.47
2022-10-08T10:22:09.584Z,99118.84
2022-10-08T10:24:53.364Z,99110.88
2022-10-08T10:27:33.143Z,99108.19
2022-10-08T10:30:06.241Z,99112.50
2022-10-08T10:32:49.195Z,99110.34
2022-10-08T10:35:20.922Z,99114.34
2022-10-08T10:37:52.367Z,99123.31
2022-10-08T10:40:35.633Z,99117.78
2022-10-08T10:43:28.018Z,99108.53
2022-10-08T10:45:58.291Z,99107.44
2022-10-08T10:48:24.884Z,99105.50
2022-10-08T10:51:03.479Z,99102.84
2022-10-08T10:53:47.149Z,99101.09
2022-10-08T10:56:19.950Z,99106.34
2022-10-08T10:59:13.775Z,99100.03
2022-10-08T11:02:11.305Z,99102.25
2022-10-08T11:05:01.402Z,99096.28
2022-10-08T11:08:07.503Z,99100.78
2022-10-08T11:11:00.368Z,99106.38
2022-10-08T11:14:02.242Z,99099.69
2022-10-08T11:16:36.300Z,99106.34
2022-10-08T11:19:06.137Z,99100.72
2022-10-08T11:22:03.689Z,99100.66
2022-10-08T11:24:56.904Z,99104.34
2022-10-08T11:27:47.678Z,99105.09
2022-10-08T11:30:14.370Z,99108.63
2022-10-08T11:32:45.415Z,99100.78
2022-10-08T11:35:12.026Z,99112.53
2022-10-08T11:37:55.294Z,99100.88
2022-10-08T11:40:44.701Z,99090.91
2022-10-08T11:43:17.234Z,99106.50
2022-10-08T11:45:46.105Z,99105.63
2022-10-08T11:48:37.518Z,99099.75
2022-10-08T11:51:18.951Z,99110.31
2022-10-08T11:54:16.592Z,99104.63
2022-10-08T11:56:46.602Z,99113.28
2022-10-08T11:59:32.946Z,99096.34
2022-10-08T12:02:21.727Z,99096.28
2022-10-08T12:04:49.589Z,99090.88
2022-10-08T12:07:25.179Z,99096.03
2022-10-08T12:10:06.689Z,99092.03
2022-10-08T12:12:51.289Z,99086.91
2022-10-08T12:15:24.045Z,99089.41
2022-10-08T12:17:51.733Z,99078.03
2022-10-08T12:20:38.345Z,99071.66
2022-10-08T12:23:04.811Z,99076.34
2022-10-08T12:25:42.506Z,99083.38
2022-10-08T12:28:20.941Z,99079.50
2022-10-08T12:30:52.616Z,99080.66
2022-10-08T12:33:20.598Z,99087.97
2022-10-08T12:36:13.991Z,99088.75
2022-10-08T12:39:06.030Z,99079.66
2022-10-08T12:41:51.196Z,99085.28
2022-10-08T12:44:26.512Z,99081.56
2022-10-08T12:47:06.357Z,99087.19
2022-10-08T12:49:43.476Z,99090.09
2022-10-08T12:52:13.092Z,99095.09
2022-10-08T12:54:46.508Z,99088.13
2022-10-08T12:57:16.797Z,99089.59
2022-10-08T12:59:43.500Z,99076.72
2022-10-08T13:02:37.687Z,99088.03
2022-10-08T13:05:25.464Z,99086.25
2022-10-08T13:07:52.266Z,99088.94
2022-10-08T13:10:25.363Z,99092.47
2022-10-08T13:13:06.584Z,99104.81
2022-10-08T13:15:34.733Z,99095.13
2022-10-08T13:18:13.830Z,99111.16
2022-10-08T13:20:55.494Z,99115.53
2022-10-08T13:23:32.191Z,99114.78
2022-10-08T13:26:00.690Z,99119.47
2022-10-08T13:28:55.650Z,99122.38
2022-10-08T13:31:23.783Z,99123.50
2022-10-08T13:33:50.828Z,99123.56
2022-10-08T13:36:22.783Z,99125.38
2022-10-08T13:38:49.200Z,99133.47
2022-10-08T13:41:25.191Z,99144.19
2022-10-08T13:43:51.677Z,99143.28
2022-10-08T13:46:18.338Z,99144.81
2022-10-08T13:48:45.244Z,99152.16
2022-10-08T13:51:11.895Z,99156.84
2022-10-08T13:53:42.013Z,99156.56
2022-10-08T13:56:08.485Z,99163.09
2022-10-08T13:58:35.022Z,99173.88
2022-10-08T14:01:01.585Z,99165.03
2022-10-08T14:03:28.075Z,99171.19
2022-10-08T14:05:54.604Z,99169.38
2022-10-08T14:08:27.750Z,99174.59
2022-10-08T14:10:58.104Z,99162.72
2022-10-08T14:13:25.458Z,99155.34
2022-10-08T14:15:52.099Z,99165.03
2022-10-08T14:18:18.690Z,99168.69
2022-10-08T14:20:45.163Z,99179.44
2022-10-08T14:23:14.732Z,99183.06
2022-10-08T14:25:41.272Z,99182.19
2022-10-08T14:28:07.955Z,99185.78
2022-10-08T14:30:34.564Z,99194.63
2022-10-08T14:33:01.142Z,99199.09
2022-10-08T14:35:27.636Z,99207.94
2022-10-08T14:37:54.122Z,99212.34
2022-10-08T14:40:22.453Z,99211.44
2022-10-08T14:42:50.105Z,99214.97
2022-10-08T14:45:17.471Z,99215.84
2022-10-08T14:47:43.939Z,99208.78
2022-10-08T14:50:10.558Z,99204.34
2022-10-08T14:52:41.753Z,99199.00
2022-10-08T14:55:10.810Z,99194.56
2022-10-08T14:57:37.260Z,99199.84
2022-10-08T15:00:04.920Z,99203.41
2022-10-08T15:02:31.704Z,99197.25
2022-10-08T15:04:58.235Z,99200.84
2022-10-08T15:07:24.781Z,99204.44
2022-10-08T15:09:51.631Z,99206.25
2022-10-08T15:12:18.069Z,99199.13
2022-10-08T15:14:44.563Z,99200.03
2022-10-08T15:17:11.016Z,99200.03
2022-10-08T15:19:37.533Z,99207.09
2022-10-08T15:22:04.051Z,99208.88
2022-10-08T15:24:30.497Z,99209.75
2022-10-08T15:26:57.078Z,99205.38
2022-10-08T15:29:23.583Z,99208.00
2022-10-08T15:31:50.933Z,99215.09
2022-10-08T15:34:19.529Z,99216.88
2022-10-08T15:36:46.336Z,99218.66
2022-10-08T15:39:15.200Z,99229.31
2022-10-08T15:41:44.330Z,99228.47
2022-10-08T15:44:14.010Z,99236.47
2022-10-08T15:46:40.498Z,99249.81
2022-10-08T15:49:07.065Z,99254.28
2022-10-08T15:51:36.858Z,99271.19
2022-10-08T15:54:03.647Z,99271.28
2022-10-08T15:56:30.223Z,99279.28
2022-10-08T15:58:58.491Z,99278.44
2022-10-08T16:01:25.736Z,99280.22
2022-10-08T16:03:54.377Z,99286.41
2022-10-08T16:06:23.748Z,99291.72
2022-10-08T16:08:51.160Z,99297.06
2022-10-08T16:11:26.524Z,99299.75
2022-10-08T16:14:09.614Z,99306.84
2022-10-08T16:16:37.188Z,99301.53
2022-10-08T16:19:06.439Z,99312.16
2022-10-08T16:21:35.471Z,99311.28
2022-10-08T16:24:02.213Z,99315.69
2022-10-08T16:26:31.804Z,99321.91
2022-10-08T16:29:00.731Z,99316.59
2022-10-08T16:31:29.964Z,99327.25
2022-10-08T16:34:01.324Z,99323.72
2022-10-08T16:36:29.802Z,99329.03
2022-10-08T16:38:57.673Z,99334.34
2022-10-08T16:41:26.875Z,99335.25
2022-10-08T16:43:55.698Z,99338.81
2022-10-08T16:46:27.921Z,99349.44
2022-10-08T16:49:11.811Z,99352.09
2022-10-08T16:51:38.729Z,99367.16
2022-10-08T16:54:07.873Z,99366.25
2022-10-08T16:56:37.481Z,99372.44
2022-10-08T16:59:10.181Z,99380.41
2022-10-08T17:01:38.341Z,99374.22
2022-10-08T17:04:06.613Z,99391.91
2022-10-08T17:06:34.024Z,99393.66
2022-10-08T17:09:00.479Z,99393.69
2022-10-08T17:11:27.021Z,99398.97
2022-10-08T17:13:56.224Z,99399.84
2022-10-08T17:16:24.910Z,99399.84
2022-10-08T17:18:56.122Z,99396.31
2022-10-08T17:21:23.389Z,99415.75
2022-10-08T17:23:49.988Z,99410.44
2022-10-08T17:26:19.497Z,99419.31
2022-10-08T17:28:48.100Z,99423.72
2022-10-08T17:31:18.476Z,99426.38
2022-10-08T17:33:44.987Z,99433.44
2022-10-08T17:36:12.727Z,99433.44
2022-10-08T17:38:41.659Z,99439.59
2022-10-08T17:41:23.164Z,99442.25
2022-10-08T17:43:50.459Z,99447.56
2022-10-08T17:46:18.446Z,99452.88
2022-10-08T17:48:45.481Z,99452.88
2022-10-08T17:51:14.501Z,99453.75
2022-10-08T17:53:41.933Z,99453.75
2022-10-08T17:56:11.214Z,99469.63
2022-10-08T17:58:38.760Z,99463.44
2022-10-08T18:01:10.600Z,99479.38
2022-10-08T18:03:38.665Z,99474.09
2022-10-08T18:06:07.137Z,99484.69
2022-10-08T18:08:33.957Z,99491.78
2022-10-08T18:11:05.856Z,99493.53
2022-10-08T18:13:33.987Z,99498.84
2022-10-08T18:16:13.188Z,99499.69
2022-10-08T18:18:40.793Z,99506.75
2022-10-08T18:21:07.840Z,99497.88
2022-10-08T18:23:36.303Z,99506.72
2022-10-08T18:26:22.457Z,99515.50
2022-10-08T18:28:51.465Z,99514.66
2022-10-08T18:31:19.179Z,99516.44
2022-10-08T18:33:47.673Z,99527.03
2022-10-08T18:36:23.626Z,99520.81
2022-10-08T18:39:01.501Z,99529.69
2022-10-08T18:41:33.914Z,99519.03
2022-10-08T18:44:00.989Z,99533.19
2022-10-08T18:46:28.796Z,99542.91
2022-10-08T18:48:55.836Z,99542.91
2022-10-08T18:51:27.353Z,99539.38
2022-10-08T18:53:56.282Z,99541.22
2022-10-08T18:56:28.857Z,99544.75
2022-10-08T18:58:57.277Z,99550.97
2022-10-08T19:01:26.797Z,99551.00
2022-10-08T19:03:56.332Z,99543.94
2022-10-08T19:06:25.600Z,99551.88
2022-10-08T19:08:52.660Z,99550.13
2022-10-08T19:11:21.863Z,99551.88
2022-10-08T19:13:49.139Z,99558.97
2022-10-08T19:16:16.206Z,99557.19
2022-10-08T19:18:52.259Z,99556.31
2022-10-08T19:21:19.440Z,99561.59
2022-10-08T19:23:45.999Z,99559.78
2022-10-08T19:26:14.316Z,99558.06
2022-10-08T19:28:46.244Z,99560.69
2022-10-08T19:31:12.819Z,99569.53
2022-10-08T19:33:39.329Z,99571.28
2022-10-08T19:36:06.169Z,99577.47
2022-10-08T19:38:32.652Z,99574.75
2022-10-08T19:40:59.171Z,99579.19
2022-10-08T19:43:25.657Z,99581.78
2022-10-08T19:45:52.168Z,99586.19
2022-10-08T19:48:18.639Z,99589.72
2022-10-08T19:50:45.161Z,99603.00
2022-10-08T19:53:11.662Z,99600.34
2022-10-08T19:55:38.399Z,99604.72
2022-10-08T19:58:04.972Z,99614.44
2022-10-08T20:00:31.499Z,99610.88
2022-10-08T20:02:58.058Z,99611.75
2022-10-08T20:05:24.538Z,99623.25
2022-10-08T20:07:51.047Z,99630.31
2022-10-08T20:10:17.575Z,99623.19
2022-10-08T20:12:44.481Z,99630.22
2022-10-08T20:15:11.183Z,99637.28
2022-10-08T20:17:37.834Z,99633.69
2022-10-08T20:20:27.810Z,99638.97
2022-10-08T20:22:51.794Z,99637.13
2022-10-08T20:25:20.432Z,99640.66
2022-10-08T20:27:47.918Z,99641.53
2022-10-08T20:30:16.572Z,99645.06
2022-10-08T20:32:43.284Z,99637.19
2022-10-08T20:35:10.005Z,99643.31
2022-10-08T20:37:36.631Z,99642.38
2022-10-08T20:40:03.301Z,99638.00
2022-10-08T20:42:32.090Z,99643.22
2022-10-08T20:44:58.827Z,99653.78
2022-10-08T20:47:25.279Z,99645.88
2022-10-08T20:49:51.830Z,99644.94
2022-10-08T20:52:18.270Z,99652.00
2022-10-08T20:54:44.798Z,99650.25
2022-10-08T20:57:11.266Z,99651.13
2022-10-08T20:59:37.785Z,99649.38
2022-10-08T21:02:05.565Z,99651.16
2022-10-08T21:04:32.094Z,99650.25
2022-10-08T21:06:58.531Z,99649.34
2022-10-08T21:09:25.023Z,99657.22
2022-10-08T21:11:53.555Z,99661.63
2022-10-08T21:14:22.521Z,99667.81
2022-10-08T21:16:49.296Z,99669.56
2022-10-08T21:19:18.988Z,99673.94
2022-10-08T21:21:45.555Z,99673.97
2022-10-08T21:24:12.088Z,99675.66
2022-10-08T21:26:40.737Z,99679.16
2022-10-08T21:29:10.189Z,99672.97
2022-10-08T21:31:38.462Z,99674.72
2022-10-08T21:34:05.850Z,99672.94
2022-10-08T21:36:36.879Z,99667.63
2022-10-08T21:39:05.415Z,99673.81
2022-10-08T21:41:34.636Z,99675.59
2022-10-08T21:44:03.550Z,99681.78
2022-10-08T21:46:32.464Z,99679.94
2022-10-08T21:49:01.928Z,99680.78
2022-10-08T21:51:30.838Z,99681.69
2022-10-08T21:53:59.740Z,99672.00
2022-10-08T21:56:29.045Z,99685.22
2022-10-08T21:59:00.896Z,99686.06
2022-10-08T22:01:28.700Z,99687.81
2022-10-08T22:03:57.040Z,99692.22
2022-10-08T22:06:27.283Z,99701.06
2022-10-08T22:09:00.501Z,99689.56
2022-10-08T22:11:27.265Z,99699.22
2022-10-08T22:13:53.891Z,99695.69
2022-10-08T22:16:22.937Z,99694.78
2022-10-08T22:18:49.562Z,99699.22
2022-10-08T22:21:26.184Z,99706.19
2022-10-08T22:23:53.119Z,99702.59
2022-10-08T22:26:23.590Z,99707.03
2022-10-08T22:28:51.124Z,99710.63
2022-10-08T22:31:19.486Z,99705.31
2022-10-08T22:33:46.994Z,99705.25
2022-10-08T22:36:28.413Z,99706.13
2022-10-08T22:38:55.855Z,99707.88
2022-10-08T22:41:25.196Z,99714.81
2022-10-08T22:43:52.238Z,99706.03
2022-10-08T22:46:26.893Z,99712.22
2022-10-08T22:48:58.409Z,99709.50
2022-10-08T22:51:25.069Z,99712.22
2022-10-08T22:53:52.027Z,99712.22
2022-10-08T22:56:21.510Z,99708.63
2022-10-08T22:58:48.692Z,99706.94
2022-10-08T23:01:18.636Z,99706.00
2022-10-08T23:03:45.581Z,99708.59
2022-10-08T23:06:19.596Z,99707.72
2022-10-08T23:08:48.001Z,99705.94
2022-10-08T23:11:16.066Z,99713.00
2022-10-08T23:13:45.749Z,99714.72
2022-10-08T23:16:14.342Z,99722.66
2022-10-08T23:18:44.194Z,99707.53
2022-10-08T23:21:16.645Z,99718.97
2022-10-08T23:23:47.664Z,99718.16
2022-10-08T23:26:15.883Z,99707.56
2022-10-08T23:28:43.764Z,99719.03
2022-10-08T23:31:16.519Z,99719.00
2022-10-08T23:33:45.548Z,99718.97
2022-10-08T23:36:18.245Z,99729.53
2022-10-08T23:38:47.873Z,99725.88
2022-10-08T23:41:14.560Z,99727.50
2022-10-08T23:43:43.368Z,99723.97
2022-10-08T23:46:12.255Z,99723.06
2022-10-08T23:48:39.199Z,99728.34
2022-10-08T23:51:06.856Z,99723.91
2022-10-08T23:53:34.512Z,99724.78
2022-10-08T23:56:04.480Z,99730.03
2022-10-08T23:58:31.075Z,99727.34
